createdAt,value
2023-02-11T00:07:26.144Z,103240.97
2023-02-11T00:17:27.456Z,103241.84
2023-02-11T00:27:28.762Z,103232.25
2023-02-11T00:37:30.049Z,103238.31
2023-02-11T00:47:31.282Z,103224.38
2023-02-11T00:57:32.509Z,103234.84
2023-02-11T01:07:33.772Z,103233.09
2023-02-11T01:17:35.019Z,103241.81
2023-02-11T01:27:36.330Z,103256.63
2023-02-11T01:37:37.643Z,103236.56
2023-02-11T01:47:38.924Z,103214.78
2023-02-11T01:57:40.175Z,103211.31
2023-02-11T02:07:41.436Z,103212.16
2023-02-11T02:17:42.705Z,103198.22
2023-02-11T02:27:44.000Z,103211.31
2023-02-11T02:37:45.298Z,103211.31
2023-02-11T02:47:46.598Z,103204.31
2023-02-11T02:57:47.960Z,103199.09
2023-02-11T03:07:49.238Z,103206.09
2023-02-11T03:17:50.548Z,103199.09
2023-02-11T03:27:51.817Z,103183.41
2023-02-11T03:37:53.117Z,103185.16
2023-02-11T03:47:54.521Z,103200.00
2023-02-11T03:57:55.811Z,103202.66
2023-02-11T04:07:57.055Z,103186.94
2023-02-11T04:17:58.341Z,103166.88
2023-02-11T04:27:59.649Z,103154.69
2023-02-11T04:38:00.945Z,103156.44
2023-02-11T04:48:02.237Z,103163.41
2023-02-11T04:58:03.521Z,103172.16
2023-02-11T05:08:04.806Z,103170.41
2023-02-11T05:18:06.058Z,103182.63
2023-02-11T05:28:07.330Z,103173.88
2023-02-11T05:38:08.628Z,103165.16
2023-02-11T05:48:09.970Z,103158.19
2023-02-11T05:58:11.319Z,103161.69
2023-02-11T06:08:12.624Z,103167.78
2023-02-11T06:18:13.879Z,103178.25
2023-02-11T06:28:15.138Z,103167.75
2023-02-11T06:38:16.451Z,103172.13
2023-02-11T06:48:17.851Z,103180.88
2023-02-11T06:58:19.152Z,103187.84
2023-02-11T07:08:20.684Z,103198.34
2023-02-11T07:18:22.174Z,103203.53
2023-02-11T07:28:23.502Z,103212.28
2023-02-11T07:38:25.088Z,103219.25
2023-02-11T07:48:26.601Z,103229.72
2023-02-11T07:58:27.868Z,103247.19
2023-02-11T08:08:29.123Z,103254.16
2023-02-11T08:18:30.590Z,103256.78
2023-02-11T08:28:32.191Z,103256.78
2023-02-11T08:38:33.613Z,103259.41
2023-02-11T08:48:35.138Z,103260.28
2023-02-11T08:58:36.562Z,103259.41
2023-02-11T09:08:38.111Z,103273.38
2023-02-11T09:18:39.488Z,103269.03
2023-02-11T09:28:40.804Z,103277.75
2023-02-11T09:38:42.091Z,103289.94
2023-02-11T09:48:43.610Z,103312.66
2023-02-11T09:58:44.878Z,103307.41
2023-02-11T10:08:46.261Z,103313.50
2023-02-11T10:18:47.841Z,103322.25
2023-02-11T10:28:49.204Z,103345.81
2023-02-11T10:38:50.494Z,103341.44
2023-02-11T10:48:51.780Z,103358.00
2023-02-11T10:58:53.368Z,103364.13
2023-02-11T11:08:54.930Z,103376.31
2023-02-11T11:18:56.349Z,103373.72
2023-02-11T11:28:57.907Z,103371.09
2023-02-11T11:38:59.447Z,103379.84
2023-02-11T11:49:00.672Z,103386.81
2023-02-11T11:59:02.120Z,103379.84
2023-02-11T12:09:03.432Z,103373.72
2023-02-11T12:19:05.075Z,103358.91
2023-02-11T12:29:06.407Z,103351.06
2023-02-11T12:39:08.656Z,103342.28
2023-02-11T12:49:09.976Z,103338.81
2023-02-11T12:59:14.250Z,103329.22
2023-02-11T13:09:15.787Z,103329.22
2023-02-11T13:19:17.350Z,103326.59
2023-02-11T13:29:18.695Z,103324.88
2023-02-11T13:39:20.254Z,103316.13
2023-02-11T13:49:21.699Z,103319.63
2023-02-11T13:59:24.991Z,103322.25
2023-02-11T14:09:26.252Z,103325.72
2023-02-11T14:19:27.582Z,103336.19
2023-02-11T14:29:29.129Z,103322.22
2023-02-11T14:39:30.701Z,103321.34
2023-02-11T14:49:32.263Z,103330.94
2023-02-11T14:59:33.897Z,103340.53
2023-02-11T15:09:35.204Z,103343.13
2023-02-11T15:19:36.583Z,103345.75
2023-02-11T15:29:38.017Z,103360.59
2023-02-11T15:39:39.271Z,103363.22
2023-02-11T15:49:40.724Z,103380.63
2023-02-11T15:59:42.457Z,103363.19
2023-02-11T16:09:43.995Z,103361.44
2023-02-11T16:19:45.356Z,103370.16
2023-02-11T16:29:46.789Z,103370.13
2023-02-11T16:39:48.092Z,103377.97
2023-02-11T16:49:49.408Z,103378.00
2023-02-11T16:59:50.687Z,103389.31
2023-02-11T17:09:52.134Z,103395.44
2023-02-11T17:19:53.358Z,103402.34
2023-02-11T17:29:54.627Z,103407.63
2023-02-11T17:39:56.124Z,103421.53
2023-02-11T17:49:57.874Z,103440.69
2023-02-11T17:59:59.301Z,103458.25
2023-02-11T18:10:00.778Z,103460.88
2023-02-11T18:20:02.356Z,103466.97
2023-02-11T18:30:03.904Z,103473.06
2023-02-11T18:40:05.295Z,103472.19
2023-02-11T18:50:06.577Z,103489.63
2023-02-11T19:00:07.847Z,103476.56
2023-02-11T19:10:10.799Z,103480.88
2023-02-11T19:20:12.205Z,103483.50
2023-02-11T19:30:13.643Z,103487.00
2023-02-11T19:40:15.034Z,103500.91
2023-02-11T19:50:16.391Z,103509.66
2023-02-11T20:00:17.967Z,103520.13
2023-02-11T20:10:19.266Z,103523.59
2023-02-11T20:20:20.663Z,103533.22
2023-02-11T20:30:21.923Z,103548.91
2023-02-11T20:40:23.459Z,103555.03
2023-02-11T20:50:25.058Z,103565.50
2023-02-11T21:00:28.189Z,103568.91
2023-02-11T21:10:29.556Z,103584.63
2023-02-11T21:20:30.978Z,103584.63
2023-02-11T21:30:32.277Z,103588.13
2023-02-11T21:40:33.842Z,103601.19
2023-02-11T21:50:35.141Z,103606.44
2023-02-11T22:00:36.460Z,103605.56
2023-02-11T22:10:37.845Z,103610.00
2023-02-11T22:20:39.400Z,103617.72
2023-02-11T22:30:41.046Z,103618.59
2023-02-11T22:40:42.443Z,103611.63
2023-02-11T22:50:43.965Z,103611.66
2023-02-11T23:00:45.426Z,103620.34
2023-02-11T23:10:46.769Z,103615.97
2023-02-11T23:20:48.106Z,103606.41
2023-02-11T23:30:49.764Z,103619.44
2023-02-11T23:40:51.036Z,103617.72
2023-02-11T23:50:52.301Z,103622.94
